Time;durP1;ratioP1;P1;durP2;ratioP2;P2;SDS_P1;SDS_P2;PMS_P1;PMS_P2;Temp;Humidity;BMP_temperature;BMP_pressure;BME280_temperature;BME280_humidity;BME280_pressure;Samples;Min_cycle;Max_cycle;Signal;HPM_P1;HPM_P2
2021/08/13 00:01:13;;;;;;;;;;;;;;;17.48;58.89;100764.87;126837;1088;102885;-79
2021/08/13 00:04:07;;;;;;;;;;;;;;;17.46;59.11;100764.09;126661;1089;102994;-79
2021/08/13 00:07:05;;;;;;;;;;;;;;;17.45;58.97;100762.39;126873;1090;102846;-79
2021/08/13 00:09:57;;;;;;;;;;;;;;;17.43;58.89;100760.77;126699;1087;103000;-79
2021/08/13 00:12:44;;;;;;;;;;;;;;;17.41;59.00;100762.61;126828;1087;102939;-79
2021/08/13 00:15:34;;;;;;;;;;;;;;;17.40;58.86;100761.76;126721;1090;102943;-79
2021/08/13 00:18:24;;;;;;;;;;;;;;;17.38;59.01;100763.63;126797;1087;102955;-78
2021/08/13 00:21:15;;;;;;;;;;;;;;;17.37;59.18;100769.84;126727;1087;103094;-78
2021/08/13 00:24:02;;;;;;;;;;;;;;;17.35;59.02;100763.80;126744;1088;102732;-79
2021/08/13 00:26:52;;;;;;;;;;;;;;;17.34;59.01;100764.73;126743;1088;103307;-78
2021/08/13 00:29:39;;;;;;;;;;;;;;;17.34;59.13;100772.64;126849;1090;103090;-78
2021/08/13 00:32:28;;;;;;;;;;;;;;;17.32;59.31;100771.87;126789;1088;102998;-78
2021/08/13 00:35:15;;;;;;;;;;;;;;;17.32;59.33;100771.02;126848;1087;102946;-78
2021/08/13 00:38:04;;;;;;;;;;;;;;;17.31;59.46;100767.53;126753;1090;102872;-80
2021/08/13 00:40:51;;;;;;;;;;;;;;;17.30;59.52;100773.73;126748;1089;102967;-79
2021/08/13 00:43:39;;;;;;;;;;;;;;;17.29;59.59;100769.39;126705;1087;102941;-78
2021/08/13 00:46:26;;;;;;;;;;;;;;;17.28;59.34;100766.84;126855;1089;102852;-79
2021/08/13 00:49:40;;;;;;;;;;;;;;;17.27;59.56;100765.98;126814;1088;103393;-78
2021/08/13 00:52:38;;;;;;;;;;;;;;;17.26;59.84;100772.20;126810;1090;102895;-78
2021/08/13 00:55:29;;;;;;;;;;;;;;;17.23;59.98;100767.05;126802;1090;103095;-78
2021/08/13 00:58:20;;;;;;;;;;;;;;;17.19;59.83;100765.52;126908;1089;102978;-78
2021/08/13 01:01:23;;;;;;;;;;;;;;;17.18;59.67;100763.81;126723;1087;102860;-78
2021/08/13 01:04:12;;;;;;;;;;;;;;;17.17;59.79;100762.95;126762;1090;102974;-79
2021/08/13 01:07:03;;;;;;;;;;;;;;;17.18;59.61;100766.45;126841;1085;102958;-79
2021/08/13 01:09:52;;;;;;;;;;;;;;;17.19;59.53;100763.73;126595;1090;102974;-78
2021/08/13 01:12:53;;;;;;;;;;;;;;;17.24;59.63;100763.52;126850;1087;102904;-78
2021/08/13 01:15:50;;;;;;;;;;;;;;;17.29;59.53;100758.00;126766;1090;102864;-79
2021/08/13 01:18:42;;;;;;;;;;;;;;;17.30;59.29;100760.55;126877;1088;102944;-79
2021/08/13 01:21:39;;;;;;;;;;;;;;;17.31;59.40;100762.25;126758;1087;102824;-78
2021/08/13 01:24:32;;;;;;;;;;;;;;;17.31;59.31;100756.13;126802;1090;103001;-78
2021/08/13 01:27:27;;;;;;;;;;;;;;;17.31;59.47;100756.98;126660;1087;102775;-79
2021/08/13 01:30:17;;;;;;;;;;;;;;;17.30;59.27;100757.06;126880;1090;102949;-80
2021/08/13 01:33:20;;;;;;;;;;;;;;;17.29;59.15;100752.72;126781;1088;103039;-78
2021/08/13 01:36:10;;;;;;;;;;;;;;;17.27;59.30;100755.45;126772;1089;102852;-79
2021/08/13 01:39:03;;;;;;;;;;;;;;;17.25;59.15;100752.04;126768;1088;102876;-79
2021/08/13 01:41:52;;;;;;;;;;;;;;;17.22;59.17;100757.44;126848;1090;102930;-79
2021/08/13 01:44:42;;;;;;;;;;;;;;;17.19;59.37;100754.97;126755;1089;102890;-79
2021/08/13 01:47:30;;;;;;;;;;;;;;;17.16;59.45;100755.13;126857;1089;102939;-78
2021/08/13 01:50:19;;;;;;;;;;;;;;;17.12;59.53;100753.59;126738;1090;103284;-79
2021/08/13 01:53:09;;;;;;;;;;;;;;;17.09;59.61;100753.75;126874;1090;103819;-79
2021/08/13 01:55:57;;;;;;;;;;;;;;;17.06;59.76;100748.64;126804;1090;102957;-79
2021/08/13 01:58:46;;;;;;;;;;;;;;;17.02;59.77;100749.70;126753;1090;101045;-79
2021/08/13 02:01:36;;;;;;;;;;;;;;;17.00;59.68;100747.16;126854;1090;102913;-78
2021/08/13 02:04:23;;;;;;;;;;;;;;;17.02;59.97;100749.70;126662;1090;102692;-78
2021/08/13 02:07:14;;;;;;;;;;;;;;;17.01;59.87;100755.91;126838;1088;102865;-78
2021/08/13 02:10:04;;;;;;;;;;;;;;;16.99;59.92;100750.72;126778;1087;102877;-78
2021/08/13 02:12:53;;;;;;;;;;;;;;;16.99;60.00;100760.41;126790;1088;101789;-78
2021/08/13 02:15:44;;;;;;;;;;;;;;;16.99;60.18;100763.04;126727;1089;102848;-79
2021/08/13 02:18:34;;;;;;;;;;;;;;;16.98;60.03;100771.88;126663;1088;102882;-79
2021/08/13 02:21:23;;;;;;;;;;;;;;;16.93;60.14;100768.63;126710;1090;103310;-79
2021/08/13 02:24:12;;;;;;;;;;;;;;;16.90;59.99;100773.13;126856;1089;103364;-78
2021/08/13 02:27:01;;;;;;;;;;;;;;;16.89;60.04;100771.42;126748;1088;102949;-77
2021/08/13 02:29:49;;;;;;;;;;;;;;;16.87;60.32;100762.72;126779;1090;102896;-79
2021/08/13 02:32:37;;;;;;;;;;;;;;;16.83;60.14;100771.70;126721;1090;102869;-79
2021/08/13 02:35:30;;;;;;;;;;;;;;;16.78;60.31;100771.09;126878;1090;102841;-79
2021/08/13 02:38:23;;;;;;;;;;;;;;;16.75;60.49;100767.77;126847;1088;102817;-79
2021/08/13 02:41:11;;;;;;;;;;;;;;;16.72;60.44;100774.04;126775;1089;102907;-79
2021/08/13 02:44:02;;;;;;;;;;;;;;;16.70;60.62;100764.52;126835;1089;102977;-79
2021/08/13 02:46:55;;;;;;;;;;;;;;;16.69;60.58;100775.95;126708;1088;104296;-79
2021/08/13 02:49:45;;;;;;;;;;;;;;;16.69;60.73;100776.80;126695;1090;102888;-78
2021/08/13 02:52:39;;;;;;;;;;;;;;;16.70;60.61;100775.90;126758;1088;102994;-79
2021/08/13 02:55:33;;;;;;;;;;;;;;;16.71;60.84;100782.88;126827;1089;104176;-79
2021/08/13 02:58:24;;;;;;;;;;;;;;;16.70;60.80;100780.31;126752;1090;102846;-79
2021/08/13 03:01:12;;;;;;;;;;;;;;;16.68;60.66;100777.73;126669;1089;102946;-79
2021/08/13 03:04:01;;;;;;;;;;;;;;;16.66;60.86;100779.55;126754;1088;102863;-78
2021/08/13 03:06:52;;;;;;;;;;;;;;;16.63;60.89;100780.56;126834;1090;102975;-79
2021/08/13 03:09:41;;;;;;;;;;;;;;;16.61;61.07;100781.56;126732;1088;102997;-79
2021/08/13 03:12:31;;;;;;;;;;;;;;;16.57;61.07;100782.65;126854;1088;102869;-79
2021/08/13 03:15:18;;;;;;;;;;;;;;;16.54;61.07;100775.76;126651;1089;102964;-79
2021/08/13 03:18:07;;;;;;;;;;;;;;;16.53;60.98;100774.05;126851;1090;102984;-79
2021/08/13 03:20:55;;;;;;;;;;;;;;;16.53;61.09;100781.09;126734;1090;103007;-79
2021/08/13 03:23:44;;;;;;;;;;;;;;;16.55;61.25;100777.46;126844;1090;103052;-79
2021/08/13 03:26:33;;;;;;;;;;;;;;;16.56;61.21;100773.90;126813;1087;100663;-78
2021/08/13 03:29:24;;;;;;;;;;;;;;;16.63;61.07;100774.44;126712;1090;102943;-79
2021/08/13 03:32:13;;;;;;;;;;;;;;;16.63;61.07;100779.70;126859;1087;102830;-79
2021/08/13 03:35:02;;;;;;;;;;;;;;;16.64;60.84;100776.14;126728;1088;103015;-79
2021/08/13 03:37:51;;;;;;;;;;;;;;;16.64;60.99;100770.88;126878;1087;102843;-79
2021/08/13 03:40:38;;;;;;;;;;;;;;;16.63;60.90;100779.70;126718;1087;102872;-79
2021/08/13 03:43:26;;;;;;;;;;;;;;;16.60;60.99;100762.28;126769;1090;103060;-78
2021/08/13 03:46:15;;;;;;;;;;;;;;;16.61;60.96;100771.03;126751;1087;102934;-79
2021/08/13 03:49:03;;;;;;;;;;;;;;;16.60;61.08;100764.06;126869;1087;102950;-79
2021/08/13 03:51:51;;;;;;;;;;;;;;;16.59;60.82;100767.63;126709;1086;102977;-79
2021/08/13 03:54:40;;;;;;;;;;;;;;;16.60;61.05;100769.33;126899;1090;102921;-79
2021/08/13 03:57:28;;;;;;;;;;;;;;;16.59;61.08;100772.89;126712;1090;102939;-79
2021/08/13 04:00:17;;;;;;;;;;;;;;;16.60;61.09;100772.81;126841;1088;102885;-79
2021/08/13 04:03:04;;;;;;;;;;;;;;;16.59;60.93;100767.63;126749;1089;102873;-79
2021/08/13 04:05:53;;;;;;;;;;;;;;;16.58;61.17;100772.04;126865;1087;102852;-79
2021/08/13 04:08:42;;;;;;;;;;;;;;;16.60;60.95;100770.18;126842;1089;102876;-79
2021/08/13 04:11:31;;;;;;;;;;;;;;;16.63;61.20;100767.39;126758;1087;102852;-79
2021/08/13 04:14:19;;;;;;;;;;;;;;;16.72;60.97;100775.82;126878;1087;102853;-79
2021/08/13 04:17:10;;;;;;;;;;;;;;;16.77;60.88;100773.80;126754;1089;103014;-79
2021/08/13 04:19:59;;;;;;;;;;;;;;;16.83;61.10;100782.25;126873;1087;102857;-79
2021/08/13 04:22:47;;;;;;;;;;;;;;;16.93;60.87;100779.17;126796;1087;102882;-79
2021/08/13 04:25:35;;;;;;;;;;;;;;;16.95;60.48;100780.80;126709;1088;102863;-79
2021/08/13 04:28:24;;;;;;;;;;;;;;;17.00;60.62;100773.50;126744;1087;102854;-79
2021/08/13 04:31:14;;;;;;;;;;;;;;;17.07;60.58;100792.52;126870;1088;102949;-79
2021/08/13 04:34:03;;;;;;;;;;;;;;;17.14;60.57;100796.53;126766;1088;103011;-79
2021/08/13 04:36:51;;;;;;;;;;;;;;;17.22;60.40;100795.20;126833;1087;102268;-79
2021/08/13 04:39:44;;;;;;;;;;;;;;;17.35;60.09;100794.58;126746;1088;102763;-79
2021/08/13 04:42:46;;;;;;;;;;;;;;;17.46;60.03;100793.11;126839;1089;103094;-79
2021/08/13 04:45:34;;;;;;;;;;;;;;;17.55;59.91;100797.03;126783;1089;102859;-78
2021/08/13 04:48:22;;;;;;;;;;;;;;;17.66;59.70;100799.13;126815;1087;101141;-79
2021/08/13 04:51:10;;;;;;;;;;;;;;;17.78;59.45;100798.52;126715;1090;102846;-79
2021/08/13 04:53:58;;;;;;;;;;;;;;;17.94;59.44;100799.38;126833;1087;102897;-79
2021/08/13 04:56:46;;;;;;;;;;;;;;;18.48;59.50;100794.63;126888;1089;102882;-78
2021/08/13 04:59:35;;;;;;;;;;;;;;;20.19;57.12;100801.18;126756;1087;102870;-79
2021/08/13 05:02:29;;;;;;;;;;;;;;;22.01;55.07;100794.28;126878;1087;101171;-79
2021/08/13 05:05:18;;;;;;;;;;;;;;;23.57;51.81;100796.06;126708;1087;103335;-78
2021/08/13 05:08:08;;;;;;;;;;;;;;;25.03;49.47;100792.22;126806;1090;102868;-78
2021/08/13 05:10:56;;;;;;;;;;;;;;;26.43;46.93;100797.88;126755;1089;102948;-79
2021/08/13 05:13:44;;;;;;;;;;;;;;;27.90;45.24;100785.06;126855;1088;102882;-79
2021/08/13 05:16:33;;;;;;;;;;;;;;;29.36;42.49;100789.25;126839;1090;102824;-79
2021/08/13 05:19:23;;;;;;;;;;;;;;;30.30;40.13;100781.19;126877;1089;102998;-79
2021/08/13 05:22:11;;;;;;;;;;;;;;;31.24;38.52;100780.84;126707;1090;102876;-79
2021/08/13 05:25:03;;;;;;;;;;;;;;;32.06;35.87;100778.75;126795;1087;102855;-79
2021/08/13 05:27:51;;;;;;;;;;;;;;;32.88;35.32;100776.44;126808;1087;102957;-79
2021/08/13 05:30:40;;;;;;;;;;;;;;;33.82;33.47;100774.16;126844;1090;103004;-79
2021/08/13 05:33:29;;;;;;;;;;;;;;;34.52;32.54;100779.02;126784;1087;103354;-80
2021/08/13 05:36:16;;;;;;;;;;;;;;;35.34;31.55;100775.78;126871;1089;102926;-80
2021/08/13 05:39:04;;;;;;;;;;;;;;;36.19;30.39;100774.62;126877;1087;102696;-80
2021/08/13 05:41:52;;;;;;;;;;;;;;;36.71;28.81;100782.08;126831;1088;102947;-78
2021/08/13 05:44:40;;;;;;;;;;;;;;;36.99;27.63;100773.78;126851;1089;103045;-79
2021/08/13 05:47:27;;;;;;;;;;;;;;;37.16;27.48;100777.72;126720;1089;102860;-79
2021/08/13 05:50:17;;;;;;;;;;;;;;;37.83;26.67;100777.64;126868;1089;102956;-78
2021/08/13 05:53:05;;;;;;;;;;;;;;;38.44;26.17;100772.57;126783;1090;102842;-78
2021/08/13 05:55:56;;;;;;;;;;;;;;;38.91;24.76;100771.19;126871;1087;102886;-79
2021/08/13 05:58:43;;;;;;;;;;;;;;;39.31;24.98;100776.30;126770;1087;102940;-79
2021/08/13 06:01:31;;;;;;;;;;;;;;;39.66;23.28;100773.03;126842;1089;102854;-79
2021/08/13 06:04:21;;;;;;;;;;;;;;;39.75;22.96;100780.70;126751;1090;102921;-80
2021/08/13 06:07:09;;;;;;;;;;;;;;;40.01;22.59;100774.09;126869;1088;102885;-79
2021/08/13 06:09:57;;;;;;;;;;;;;;;40.46;22.42;100779.19;126802;1087;103017;-79
2021/08/13 06:12:47;;;;;;;;;;;;;;;41.05;22.21;100780.16;126821;1087;102849;-79
2021/08/13 06:15:35;;;;;;;;;;;;;;;41.56;21.47;100778.63;126787;1090;102886;-79
2021/08/13 06:18:24;;;;;;;;;;;;;;;41.92;21.08;100781.06;126819;1089;103079;-78
2021/08/13 06:21:13;;;;;;;;;;;;;;;42.10;19.90;100791.05;126851;1090;102939;-78
2021/08/13 06:24:02;;;;;;;;;;;;;;;41.93;19.62;100779.98;126615;1088;103413;-78
2021/08/13 06:26:50;;;;;;;;;;;;;;;42.20;20.08;100777.55;126843;1089;102900;-79
2021/08/13 06:29:38;;;;;;;;;;;;;;;42.31;19.80;100775.81;126730;1088;102911;-79
2021/08/13 06:32:27;;;;;;;;;;;;;;;42.40;19.20;100768.88;126790;1090;102930;-78
2021/08/13 06:35:15;;;;;;;;;;;;;;;42.58;19.35;100775.23;126664;1089;102882;-78
2021/08/13 06:38:04;;;;;;;;;;;;;;;42.86;18.93;100774.32;126825;1088;102937;-79
2021/08/13 06:40:51;;;;;;;;;;;;;;;42.92;18.81;100776.95;126768;1089;103317;-79
2021/08/13 06:43:41;;;;;;;;;;;;;;;42.76;18.79;100781.32;126850;1090;102861;-79
2021/08/13 06:46:32;;;;;;;;;;;;;;;43.37;18.07;100779.56;126831;1090;102852;-79
2021/08/13 06:49:20;;;;;;;;;;;;;;;43.75;18.02;100786.14;126761;1090;102869;-80
2021/08/13 06:52:10;;;;;;;;;;;;;;;43.92;17.49;100775.91;126633;1089;102930;-79
2021/08/13 06:55:00;;;;;;;;;;;;;;;44.00;17.34;100777.39;126883;1090;102882;-79
2021/08/13 06:57:48;;;;;;;;;;;;;;;43.95;16.47;100786.38;126746;1089;102863;-79
2021/08/13 07:00:35;;;;;;;;;;;;;;;43.26;16.72;100787.87;126826;1090;102993;-79
2021/08/13 07:03:24;;;;;;;;;;;;;;;42.83;17.49;100781.14;126834;1090;102895;-79
2021/08/13 07:06:11;;;;;;;;;;;;;;;43.22;17.62;100782.05;126733;1088;102886;-79
2021/08/13 07:09:00;;;;;;;;;;;;;;;43.40;17.13;100783.72;126856;1089;102866;-79
2021/08/13 07:11:48;;;;;;;;;;;;;;;43.72;17.25;100786.66;126827;1090;101367;-79
2021/08/13 07:14:36;;;;;;;;;;;;;;;43.57;16.76;100781.75;126787;1088;102903;-79
2021/08/13 07:17:23;;;;;;;;;;;;;;;43.20;16.42;100783.39;126752;1089;102850;-79
2021/08/13 07:20:11;;;;;;;;;;;;;;;42.95;16.73;100781.10;126842;1090;102922;-79
2021/08/13 07:22:58;;;;;;;;;;;;;;;42.51;16.96;100784.44;126796;1090;102865;-79
2021/08/13 07:25:46;;;;;;;;;;;;;;;42.53;17.33;100784.19;126811;1088;102865;-79
2021/08/13 07:28:34;;;;;;;;;;;;;;;42.57;16.79;100790.03;126702;1089;102856;-79
2021/08/13 07:31:22;;;;;;;;;;;;;;;42.49;17.03;100781.11;126833;1089;102921;-80
2021/08/13 07:34:12;;;;;;;;;;;;;;;42.62;17.13;100781.89;126756;1088;102952;-79
2021/08/13 07:37:01;;;;;;;;;;;;;;;42.36;16.23;100783.30;126877;1090;103076;-79
2021/08/13 07:39:58;;;;;;;;;;;;;;;42.05;16.87;100785.44;126751;1090;102847;-80
2021/08/13 07:42:46;;;;;;;;;;;;;;;42.05;16.85;100801.05;126768;1088;102932;-79
2021/08/13 07:45:35;;;;;;;;;;;;;;;41.93;16.33;100798.34;126886;1089;102972;-80
2021/08/13 07:48:23;;;;;;;;;;;;;;;41.47;17.36;100801.95;126912;1087;103108;-80
2021/08/13 07:51:11;;;;;;;;;;;;;;;41.30;17.55;100804.61;126972;1090;102936;-79
2021/08/13 07:54:00;;;;;;;;;;;;;;;41.56;18.10;100795.05;126833;1089;102856;-80
2021/08/13 07:56:48;;;;;;;;;;;;;;;41.55;16.04;100801.60;126814;1090;101073;-80
2021/08/13 07:59:36;;;;;;;;;;;;;;;41.13;16.62;100804.45;126769;1089;103006;-79
2021/08/13 08:02:25;;;;;;;;;;;;;;;40.56;17.46;100800.48;126705;1089;102874;-79
2021/08/13 08:05:13;;;;;;;;;;;;;;;40.31;17.27;100797.88;126736;1088;102952;-79
2021/08/13 08:08:00;;;;;;;;;;;;;;;40.46;17.76;100806.53;126816;1090;103012;-79
2021/08/13 08:10:47;;;;;;;;;;;;;;;40.04;18.32;100800.98;126744;1089;103700;-79
2021/08/13 08:13:35;;;;;;;;;;;;;;;40.36;17.86;100804.31;126826;1089;102945;-79
2021/08/13 08:16:22;;;;;;;;;;;;;;;40.08;16.76;100804.91;126737;1090;102935;-79
2021/08/13 08:19:10;;;;;;;;;;;;;;;39.35;17.93;100795.81;126866;1089;102969;-79
2021/08/13 08:21:57;;;;;;;;;;;;;;;39.07;18.20;100796.23;126772;1089;104038;-79
2021/08/13 08:24:46;;;;;;;;;;;;;;;38.66;18.36;100795.72;126788;1090;102864;-79
2021/08/13 08:27:34;;;;;;;;;;;;;;;38.98;18.51;100801.98;126787;1088;102982;-79
2021/08/13 08:30:22;;;;;;;;;;;;;;;39.59;18.55;100797.69;126672;1090;102868;-78
2021/08/13 08:33:22;;;;;;;;;;;;;;;40.07;18.56;100802.41;126801;1090;101104;-78
2021/08/13 08:36:14;;;;;;;;;;;;;;;39.73;17.63;100795.65;126744;1090;102878;-79
2021/08/13 08:39:06;;;;;;;;;;;;;;;39.69;17.96;100797.17;126811;1089;102919;-79
2021/08/13 08:42:13;;;;;;;;;;;;;;;38.92;18.06;100802.85;126727;1090;103199;-78
2021/08/13 08:45:03;;;;;;;;;;;;;;;38.80;18.62;100799.19;126821;1088;102938;-79
2021/08/13 08:47:51;;;;;;;;;;;;;;;38.57;18.27;100805.17;126687;1090;102885;-79
2021/08/13 08:50:40;;;;;;;;;;;;;;;38.84;18.31;100805.87;126799;1090;103358;-78
2021/08/13 08:53:28;;;;;;;;;;;;;;;38.71;18.30;100803.23;126609;1089;102868;-79
2021/08/13 08:56:17;;;;;;;;;;;;;;;38.54;18.75;100802.89;126729;1089;102942;-79
2021/08/13 08:59:05;;;;;;;;;;;;;;;38.14;18.30;100802.24;126737;1090;101177;-80
2021/08/13 09:01:52;;;;;;;;;;;;;;;37.92;19.00;100809.88;126874;1089;101944;-79
2021/08/13 09:04:39;;;;;;;;;;;;;;;37.89;18.56;100814.92;126752;1089;101904;-79
2021/08/13 09:07:30;;;;;;;;;;;;;;;37.35;19.26;100807.89;126776;1090;103325;-80
2021/08/13 09:10:18;;;;;;;;;;;;;;;37.50;19.43;100800.31;126798;1087;102865;-79
2021/08/13 09:13:06;;;;;;;;;;;;;;;37.82;19.20;100803.20;126674;1090;102891;-79
2021/08/13 09:15:53;;;;;;;;;;;;;;;37.91;18.93;100812.81;126690;1089;103015;-77
2021/08/13 09:18:42;;;;;;;;;;;;;;;38.06;18.81;100797.89;126716;1089;102855;-78
2021/08/13 09:21:30;;;;;;;;;;;;;;;38.45;19.15;100804.22;126780;1090;102724;-80
2021/08/13 09:24:17;;;;;;;;;;;;;;;38.08;18.12;100797.67;126769;1089;102896;-80
2021/08/13 09:27:16;;;;;;;;;;;;;;;37.73;18.83;100805.34;126714;1090;102738;-80
2021/08/13 09:30:17;;;;;;;;;;;;;;;37.99;18.78;100793.50;126684;1090;102945;-79
2021/08/13 09:33:09;;;;;;;;;;;;;;;37.50;19.09;100797.59;126809;1090;102844;-79
2021/08/13 09:35:59;;;;;;;;;;;;;;;37.65;19.38;100792.74;126693;1087;102917;-80
2021/08/13 09:38:48;;;;;;;;;;;;;;;37.47;18.77;100801.58;126733;1090;103146;-79
2021/08/13 09:41:49;;;;;;;;;;;;;;;36.98;19.30;100812.86;126810;1089;102783;-79
2021/08/13 09:44:38;;;;;;;;;;;;;;;36.71;19.21;100800.27;126853;1089;102879;-79
2021/08/13 09:47:43;;;;;;;;;;;;;;;36.57;19.26;100800.23;126720;1089;103378;-79
2021/08/13 09:50:36;;;;;;;;;;;;;;;36.12;20.22;100796.33;126751;1088;102715;-79
2021/08/13 09:53:23;;;;;;;;;;;;;;;35.64;20.04;100798.14;126758;1087;102937;-79
2021/08/13 09:56:24;;;;;;;;;;;;;;;35.43;21.16;100797.17;126840;1090;102894;-79
2021/08/13 09:59:14;;;;;;;;;;;;;;;35.18;20.34;100804.02;126772;1088;102930;-79
2021/08/13 10:02:12;;;;;;;;;;;;;;;34.79;20.68;100799.91;126827;1090;102998;-79
2021/08/13 10:04:59;;;;;;;;;;;;;;;34.93;21.24;100794.65;126684;1089;102967;-78
2021/08/13 10:07:54;;;;;;;;;;;;;;;34.73;21.34;100799.85;126844;1088;102897;-79
2021/08/13 10:10:44;;;;;;;;;;;;;;;34.29;21.30;100800.79;126928;1089;102930;-79
2021/08/13 10:13:39;;;;;;;;;;;;;;;33.63;22.09;100802.61;126856;1087;102888;-79
2021/08/13 10:16:29;;;;;;;;;;;;;;;33.19;22.96;100788.98;126788;1087;103134;-79
2021/08/13 10:19:20;;;;;;;;;;;;;;;33.06;22.79;100789.63;126683;1090;102695;-78
2021/08/13 10:22:09;;;;;;;;;;;;;;;33.08;22.95;100782.18;126774;1089;102660;-78
2021/08/13 10:24:57;;;;;;;;;;;;;;;33.02;23.22;100786.42;126672;1089;105253;-78
2021/08/13 10:27:50;;;;;;;;;;;;;;;32.45;23.35;100786.83;126798;1090;102924;-78
2021/08/13 10:30:46;;;;;;;;;;;;;;;32.37;24.22;100788.75;126685;1090;102876;-78
2021/08/13 10:33:34;;;;;;;;;;;;;;;32.23;24.44;100793.01;126752;1090;102891;-78
2021/08/13 10:36:24;;;;;;;;;;;;;;;32.27;24.64;100786.27;126668;1088;103136;-79
2021/08/13 10:39:13;;;;;;;;;;;;;;;32.46;24.40;100785.81;126852;1088;102862;-79
2021/08/13 10:42:03;;;;;;;;;;;;;;;32.60;24.67;100796.88;126709;1089;103379;-79
2021/08/13 10:44:56;;;;;;;;;;;;;;;32.30;24.25;100788.60;126769;1089;102984;-78
2021/08/13 10:48:04;;;;;;;;;;;;;;;31.65;24.61;100793.38;126680;1090;102889;-78
2021/08/13 10:51:00;;;;;;;;;;;;;;;30.90;25.25;100785.53;126813;1089;102872;-78
2021/08/13 10:54:02;;;;;;;;;;;;;;;30.87;25.27;100788.53;126532;1090;102865;-78
2021/08/13 10:56:50;;;;;;;;;;;;;;;30.88;24.81;100784.83;126789;1090;102879;-78
2021/08/13 10:59:53;;;;;;;;;;;;;;;30.74;25.37;100769.36;126721;1087;103395;-78
2021/08/13 11:03:01;;;;;;;;;;;;;;;30.57;25.94;100779.23;126786;1089;102724;-80
2021/08/13 11:05:51;;;;;;;;;;;;;;;30.48;26.31;100782.91;126794;1088;103007;-79
2021/08/13 11:08:47;;;;;;;;;;;;;;;30.37;26.82;100770.63;126738;1088;103063;-79
2021/08/13 11:12:03;;;;;;;;;;;;;;;30.60;26.29;100763.59;126743;1089;102913;-80
2021/08/13 11:14:54;;;;;;;;;;;;;;;30.82;26.39;100761.27;126817;1090;102916;-79
2021/08/13 11:17:48;;;;;;;;;;;;;;;30.78;26.09;100757.23;126724;1087;103297;-80
2021/08/13 11:20:43;;;;;;;;;;;;;;;30.64;25.87;100751.50;126829;1087;103033;-81
2021/08/13 11:23:31;;;;;;;;;;;;;;;30.68;25.88;100746.62;126772;1088;102884;-80
2021/08/13 11:26:39;;;;;;;;;;;;;;;30.61;25.74;100741.08;126917;1087;102871;-80
2021/08/13 11:29:42;;;;;;;;;;;;;;;30.44;25.71;100749.27;126848;1090;102904;-81
2021/08/13 11:32:36;;;;;;;;;;;;;;;30.11;25.83;100737.58;126991;1088;102741;-80
2021/08/13 11:35:37;;;;;;;;;;;;;;;29.89;26.57;100749.75;126784;1089;102885;-80
2021/08/13 11:38:42;;;;;;;;;;;;;;;29.71;26.66;100731.02;126857;1090;102889;-80
2021/08/13 11:41:31;;;;;;;;;;;;;;;29.66;27.64;100750.33;126839;1089;103310;-80
2021/08/13 11:44:29;;;;;;;;;;;;;;;29.50;26.89;100744.02;126879;1088;102910;-80
2021/08/13 11:47:18;;;;;;;;;;;;;;;29.25;26.93;100745.67;126794;1090;102853;-80
2021/08/13 11:50:07;;;;;;;;;;;;;;;29.12;27.22;100751.48;126877;1089;102983;-80
2021/08/13 11:52:55;;;;;;;;;;;;;;;29.04;27.59;100756.77;126891;1090;102885;-80
2021/08/13 11:55:48;;;;;;;;;;;;;;;29.06;27.69;100747.55;126813;1089;103007;-80
2021/08/13 11:58:35;;;;;;;;;;;;;;;29.16;27.92;100740.25;126892;1087;102884;-80
2021/08/13 12:01:23;;;;;;;;;;;;;;;29.11;27.37;100745.27;126747;1089;102695;-80
2021/08/13 12:04:17;;;;;;;;;;;;;;;29.01;28.41;100743.66;126711;1087;103049;-80
2021/08/13 12:07:10;;;;;;;;;;;;;;;29.12;27.73;100746.95;126775;1090;102865;-80
2021/08/13 12:10:15;;;;;;;;;;;;;;;29.16;27.65;100736.73;126819;1087;103311;-80
2021/08/13 12:13:09;;;;;;;;;;;;;;;29.21;27.51;100722.81;126811;1089;103596;-80
2021/08/13 12:15:59;;;;;;;;;;;;;;;29.15;28.21;100724.30;126725;1090;102703;-80
2021/08/13 12:18:48;;;;;;;;;;;;;;;29.16;27.81;100742.09;126818;1089;102897;-79
2021/08/13 12:21:35;;;;;;;;;;;;;;;28.81;27.85;100716.13;126816;1089;102958;-80
2021/08/13 12:24:32;;;;;;;;;;;;;;;28.67;28.32;100709.46;126749;1089;102943;-79
2021/08/13 12:27:26;;;;;;;;;;;;;;;28.78;28.81;100706.55;126862;1089;102108;-79
2021/08/13 12:30:18;;;;;;;;;;;;;;;28.82;29.36;100713.28;126623;1089;102897;-79
2021/08/13 12:33:14;;;;;;;;;;;;;;;28.92;29.35;100712.39;126911;1089;102914;-80
2021/08/13 12:36:14;;;;;;;;;;;;;;;28.83;29.82;100698.02;126815;1090;103004;-80
2021/08/13 12:39:02;;;;;;;;;;;;;;;28.69;29.66;100695.88;126790;1088;102855;-79
2021/08/13 12:41:50;;;;;;;;;;;;;;;28.46;29.85;100706.27;126746;1089;103616;-79
2021/08/13 12:44:39;;;;;;;;;;;;;;;28.31;30.41;100707.78;126800;1087;103806;-78
2021/08/13 12:47:28;;;;;;;;;;;;;;;27.94;30.22;100717.59;126749;1089;102949;-78
2021/08/13 12:50:19;;;;;;;;;;;;;;;27.58;31.39;100700.53;126837;1087;103090;-79
2021/08/13 12:53:12;;;;;;;;;;;;;;;27.35;31.01;100701.91;126795;1088;102849;-79
2021/08/13 12:56:03;;;;;;;;;;;;;;;27.29;31.52;100705.14;126688;1087;103087;-79
2021/08/13 12:58:51;;;;;;;;;;;;;;;27.03;31.79;100705.78;126810;1089;102847;-79
2021/08/13 13:01:38;;;;;;;;;;;;;;;26.82;31.66;100718.47;126693;1087;102975;-80
2021/08/13 13:04:46;;;;;;;;;;;;;;;26.74;31.83;100708.45;126819;1089;102961;-79
2021/08/13 13:07:35;;;;;;;;;;;;;;;26.60;32.08;100724.13;126785;1088;101669;-79
2021/08/13 13:10:24;;;;;;;;;;;;;;;26.59;32.30;100703.70;126895;1090;102956;-79
2021/08/13 13:13:12;;;;;;;;;;;;;;;26.75;32.29;100696.80;126722;1089;103036;-79
2021/08/13 13:16:08;;;;;;;;;;;;;;;26.91;32.26;100690.83;126814;1089;102965;-79
2021/08/13 13:19:15;;;;;;;;;;;;;;;26.93;31.87;100715.66;126852;1088;102873;-80
2021/08/13 13:22:16;;;;;;;;;;;;;;;26.88;31.94;100700.98;126912;1087;101529;-79
2021/08/13 13:25:15;;;;;;;;;;;;;;;26.93;32.24;100688.89;126724;1087;102922;-79
2021/08/13 13:28:36;;;;;;;;;;;;;;;27.19;32.42;100691.80;126786;1088;102827;-78
2021/08/13 13:31:26;;;;;;;;;;;;;;;27.15;31.85;100686.89;126745;1087;102686;-79
2021/08/13 13:34:34;;;;;;;;;;;;;;;27.08;32.27;100703.52;126663;1087;102923;-78
2021/08/13 13:37:34;;;;;;;;;;;;;;;27.01;32.76;100706.92;126724;1087;102843;-78
2021/08/13 13:40:22;;;;;;;;;;;;;;;26.91;32.50;100693.51;126800;1090;102939;-78
2021/08/13 13:43:10;;;;;;;;;;;;;;;26.91;33.08;100693.51;126697;1089;103278;-78
2021/08/13 13:45:59;;;;;;;;;;;;;;;26.90;33.00;100683.80;126820;1088;102949;-78
2021/08/13 13:48:47;;;;;;;;;;;;;;;26.78;32.86;100699.19;126688;1090;102820;-78
2021/08/13 13:51:39;;;;;;;;;;;;;;;26.59;33.31;100701.03;126852;1089;102967;-78
2021/08/13 13:54:28;;;;;;;;;;;;;;;26.49;33.41;100680.47;126704;1087;102943;-78
2021/08/13 13:57:15;;;;;;;;;;;;;;;26.43;33.86;100683.71;126750;1087;102863;-78
2021/08/13 14:00:04;;;;;;;;;;;;;;;26.38;33.74;100675.25;126679;1087;103374;-78
2021/08/13 14:03:02;;;;;;;;;;;;;;;26.39;34.26;100674.29;126820;1087;102890;-79
2021/08/13 14:05:50;;;;;;;;;;;;;;;26.45;34.50;100673.72;126698;1089;103017;-78
2021/08/13 14:08:42;;;;;;;;;;;;;;;26.45;34.86;100671.05;126766;1089;102852;-79
2021/08/13 14:11:30;;;;;;;;;;;;;;;26.32;34.60;100673.11;126803;1090;102854;-80
2021/08/13 14:14:18;;;;;;;;;;;;;;;26.21;34.98;100678.58;126938;1087;100791;-83
2021/08/13 14:17:06;;;;;;;;;;;;;;;26.07;35.13;100670.98;126821;1089;102866;-83